Ar Rutbah, Iraq
Current Conditions -  °F | °C
As of 7:55 AM on Saturday 29 Nov 2014 (Local Time) from KQAJ Reporting Station
Clear Clear  
Wind Chill: 14°   Ceiling: Unl
Heat Index: 14°   Visibility: 6mi
Dew Point:   Wind: 7mph
Humidity: 74%   Direction: NA
Pressure: 30.21"   Gusts: NA
Location:  33.04°N, 40.3°E
Report Text: KQAJ 290455Z VRB06KT 9999 SKC 14/09 A3021 RMK SLP228 T01360091
Loading
Personal Weather Stations






























Interactive Weather Map New forecast layout! Learn more

10-Day Weather Forecast

Advertisements
Track Severe Weather on mobile